METAR AND TAF INFORMATION
METAR FOR GCLA
ADDS - METARS form results

(0759 UTC 03 February 2023)
Data provider http://aviationweather.gov/metar/data/
 
METAR text: GCLA 030730Z 28011KT 9999 FEW030 15/07 Q1022
Conditions at: GCLA (LA PALMA AIRPORT, ES) observed 0730 UTC 03 February 2023
Temperature: 15.0°C (59°F)
Dewpoint: 7.0°C (45°F) [RH = 59%]
Pressure (altimeter): 30.18 inches Hg (1022.0 mb)
Winds: from the W (280 degrees) at 13 MPH (11 knots; 5.7 m/s)
Visibility: 6 or more miles (10+ km)
Ceiling: at least 12,000 feet AGL
Clouds: few clouds at 3000 feet AGL
Weather: no significant weather observed at this time

METAR text: GCLA 030700Z 28009KT 9999 FEW030 15/09 Q1022
Conditions at: GCLA (LA PALMA AIRPORT, ES) observed 0700 UTC 03 February 2023
Temperature: 15.0°C (59°F)
Dewpoint: 9.0°C (48°F) [RH = 67%]
Pressure (altimeter): 30.18 inches Hg (1022.0 mb)
Winds: from the W (280 degrees) at 10 MPH (9 knots; 4.6 m/s)
Visibility: 6 or more miles (10+ km)
Ceiling: at least 12,000 feet AGL
Clouds: few clouds at 3000 feet AGL
Weather: no significant weather observed at this time

Forecast for: GCLA (LA PALMA AIRPORT, ES)
Text: TAF GCLA 030200Z 0303/0403 29010KT 9999 FEW035 TX20/0314Z TN14/0306Z
Forecast period: 0300 UTC 03 February 2023 to 0300 UTC 04 February 2023
Forecast type: FROM: standard forecast or significant change
Winds: from the WNW (290 degrees) at 12 MPH (10 knots; 5.1 m/s)
Visibility: 6 or more miles (10+ km)
Ceiling: at least 12,000 feet AGL
Clouds: few clouds at 3500 feet AGL
Weather: no significant weather forecast for this period
Text: TEMPO 0309/0320 VRB05KT
Forecast period: 0900 to 2000 UTC 03 February 2023
Forecast type: TEMPORARY: The following changes expected for less than half the time period
Winds: variable direction winds at 6 MPH (5 knots; 2.6 m/s)
Visibility: missing
Ceiling: unknown
Clouds: missing
Weather: no significant weather forecast for this period
Text: PROB40
Forecast period: 1200 UTC 03 February 2023 to 0300 UTC 04 February 2023
Forecast type: TEMPORARY: The following changes expected for less than half the time period
Visibility: 2.80 miles (4.51 km)
Ceiling: unknown
Clouds: missing
Weather: RA  (moderate rain)

 AIRPORT MAP

 RUNWAY INFORMATION
Runway 01 Runway length 7218 ft Runway width 148 ft
Runway elevation 103 ft Runway displaced threshold 0 ft Runway heading 359
Runway 19 Runway length 7218 ft Runway width 148 ft
Runway elevation 65 ft Runway displaced threshold 0 ft Runway heading 179

 AIRPORT FREQUENCIES
Type APP Name CANARIAS A Frequency 126.1 MHZ
Type ATIS Name INFO Frequency 118.6 MHZ
Type GND Name GND Frequency 121.8 MHZ
Type TWR Name TWR Frequency 118.9 MHZ

 AIRPORT NEAR NAVIGATION AIDS
Type DME Name La Palma Frequency 112400 KHZ
Type NDB Name La Palma Frequency 389 KHZ